Monday, December 18, 2017, 4:15 PM CST
Back to Local

KGBD, Great Bend, Great Bend Municipal Airport

Location: Great Bend, KS, United States Lat: 38.35
Local Time: 4:15 PM CST (22:15 GMT) Lon: -98.867
Time Zone: US/Central Elev: 1886 ft

Show me the last for .
Show Decoded

2017-12-18 15:56 METAR KGBD 182156Z AUTO 22008KT 10SM CLR 14/M02 A2994 RMK AO2 SLP148 T01391022 =
2017-12-18 14:56 METAR KGBD 182056Z AUTO 21013KT 10SM CLR 14/M02 A2994 RMK AO2 SLP148 T01391017
                 56030 =
2017-12-18 13:56 METAR KGBD 181956Z AUTO 22012KT 10SM CLR 13/M01 A2997 RMK AO2 SLP158 T01331011 =
2017-12-18 12:56 METAR KGBD 181856Z AUTO 19014G22KT 10SM CLR 13/M01 A3000 RMK AO2 SLP167
                 T01281006 =
2017-12-18 11:56 METAR KGBD 181756Z AUTO 21010KT 10SM CLR 11/M01 A3003 RMK AO2 SLP182 T01061006
                 10106 21083 58013 =
2017-12-18 10:56 METAR KGBD 181656Z AUTO 22009KT 10SM CLR 06/M01 A3007 RMK AO2 SLP195 T00611011 =
2017-12-18 09:56 METAR KGBD 181556Z AUTO 21004KT 10SM CLR 02/M02 A3007 RMK AO2 SLP199 T00221022
                 FZRANO =
2017-12-18 08:56 METAR KGBD 181456Z AUTO 22007KT 10SM CLR M03/M05 A3008 RMK AO2 SLP203 T10281050
                 50005 FZRANO =
2017-12-18 07:56 METAR KGBD 181356Z AUTO 22008KT 10SM CLR M06/M07 A3008 RMK AO2 SLP208 T10561067
                 FZRANO =
2017-12-18 06:56 METAR KGBD 181256Z AUTO 29004KT 10SM CLR M07/M08 A3007 RMK AO2 SLP204 T10721083
                 FZRANO =
2017-12-18 05:56 METAR KGBD 181156Z AUTO 28003KT 10SM CLR M08/M09 A3006 RMK AO2 SLP198 T10781089
                 11039 21078 51002 FZRANO =
2017-12-18 04:56 METAR KGBD 181056Z AUTO 24004KT 10SM CLR M07/M08 A3006 RMK AO2 SLP196 T10721083
                 FZRANO =
2017-12-18 03:56 METAR KGBD 180956Z AUTO 00000KT 10SM CLR M06/M07 A3007 RMK AO2 SLP196 T10611072
                 FZRANO =
2017-12-18 02:56 METAR KGBD 180856Z AUTO 28004KT 10SM CLR M06/M08 A3005 RMK AO2 SLP190 T10611078
                 53000 FZRANO =
2017-12-18 01:56 METAR KGBD 180756Z AUTO 22007KT 10SM CLR M05/M06 A3004 RMK AO2 SLP184 T10501061
                 FZRANO =
2017-12-18 00:56 METAR KGBD 180656Z AUTO 22005KT 10SM CLR M04/M06 A3004 RMK AO2 SLP186 T10441056
                 FZRANO =
2017-12-17 23:56 METAR KGBD 180556Z AUTO 26005KT 10SM CLR M04/M06 A3005 RMK AO2 SLP191 T10391056
                 10033 21044 400941044 50005 FZRANO =
2017-12-17 22:56 METAR KGBD 180456Z AUTO 28006KT 10SM CLR M03/M05 A3005 RMK AO2 SLP192 T10331050
                 FZRANO =
2017-12-17 21:56 METAR KGBD 180356Z AUTO 31007KT 10SM CLR M03/M06 A3005 RMK AO2 SLP191 T10331056
                 FZRANO =
2017-12-17 20:56 METAR KGBD 180256Z AUTO 29006KT 10SM CLR M02/M05 A3004 RMK AO2 SLP189 T10221050
                 51013 FZRANO =
2017-12-17 19:56 METAR KGBD 180156Z AUTO 30006KT 10SM CLR M03/M06 A3002 RMK AO2 SLP185 T10281061
                 FZRANO =
2017-12-17 18:56 METAR KGBD 180056Z AUTO 32003KT 10SM CLR M01/M04 A3002 RMK AO2 SLP178 T10061044
                 FZRANO =
2017-12-17 17:56 METAR KGBD 172356Z AUTO 35005KT 10SM CLR 03/M03 A3000 RMK AO2 SLP169 T00331033
                 10089 20033 53009 =
2017-12-17 16:56 METAR KGBD 172256Z AUTO 35006KT 10SM CLR 06/M02 A2998 RMK AO2 SLP162 T00611022 =

Support USWX by starting your Amazon purchase here.